createdAt,value
2019-01-20T00:01:34.601Z,23.20
2019-01-20T00:04:08.253Z,19.17
2019-01-20T00:06:41.569Z,18.73
2019-01-20T00:09:14.484Z,18.93
2019-01-20T00:11:46.343Z,20.47
2019-01-20T00:14:20.303Z,18.93
2019-01-20T00:16:51.275Z,14.80
2019-01-20T00:19:25.218Z,16.07
2019-01-20T00:21:56.165Z,16.17
2019-01-20T00:24:28.662Z,13.03
2019-01-20T00:26:59.691Z,13.97
2019-01-20T00:29:33.371Z,15.53
2019-01-20T00:32:07.390Z,15.40
2019-01-20T00:34:38.437Z,16.33
2019-01-20T00:37:11.369Z,17.13
2019-01-20T00:39:42.460Z,17.17
2019-01-20T00:42:13.938Z,13.87
2019-01-20T00:44:45.130Z,13.83
2019-01-20T00:47:16.112Z,15.33
2019-01-20T00:49:50.306Z,14.80
2019-01-20T00:52:24.075Z,12.97
2019-01-20T00:55:15.853Z,15.37
2019-01-20T00:57:52.722Z,15.73
2019-01-20T01:00:32.084Z,14.47
2019-01-20T01:03:04.526Z,18.60
2019-01-20T01:05:39.062Z,12.23
2019-01-20T01:08:11.470Z,15.87
2019-01-20T01:10:42.505Z,15.57
2019-01-20T01:13:15.800Z,14.63
2019-01-20T01:15:49.711Z,19.17
2019-01-20T01:18:20.567Z,14.33
2019-01-20T01:20:54.541Z,13.73
2019-01-20T01:23:27.794Z,13.50
2019-01-20T01:26:02.341Z,16.53
2019-01-20T01:28:33.253Z,17.43
2019-01-20T01:31:04.625Z,14.57
2019-01-20T01:33:35.526Z,14.73
2019-01-20T01:36:08.461Z,15.57
2019-01-20T01:38:39.229Z,15.53
2019-01-20T01:41:10.372Z,11.43
2019-01-20T01:43:44.609Z,11.90
2019-01-20T01:46:18.270Z,12.80
2019-01-20T01:48:49.018Z,12.17
2019-01-20T01:51:20.213Z,15.27
2019-01-20T01:53:51.088Z,14.07
2019-01-20T01:56:24.244Z,13.30
2019-01-20T01:58:55.441Z,16.17
2019-01-20T02:01:27.272Z,12.47
2019-01-20T02:03:59.850Z,14.97
2019-01-20T02:06:31.580Z,13.83
2019-01-20T02:09:07.909Z,13.50
2019-01-20T02:11:46.980Z,14.07
2019-01-20T02:14:16.600Z,20.33
2019-01-20T02:16:48.587Z,13.73
2019-01-20T02:19:21.967Z,12.37
2019-01-20T02:21:53.881Z,13.10
2019-01-20T02:24:24.693Z,15.07
2019-01-20T02:26:55.567Z,11.17
2019-01-20T02:29:26.533Z,12.87
2019-01-20T02:31:58.092Z,14.73
2019-01-20T02:34:29.119Z,21.67
2019-01-20T02:37:03.082Z,14.97
2019-01-20T02:39:35.833Z,11.10
2019-01-20T02:42:07.657Z,15.33
2019-01-20T02:44:38.831Z,13.07
2019-01-20T02:47:09.742Z,13.03
2019-01-20T02:49:40.658Z,10.97
2019-01-20T02:52:21.413Z,12.77
2019-01-20T02:54:53.805Z,9.37
2019-01-20T02:57:24.705Z,11.87
2019-01-20T02:59:58.958Z,14.37
2019-01-20T03:02:30.099Z,13.20
2019-01-20T03:05:01.442Z,14.97
2019-01-20T03:07:32.270Z,11.17
2019-01-20T03:10:09.702Z,9.67
2019-01-20T03:12:49.363Z,12.80
2019-01-20T03:15:20.199Z,12.30
2019-01-20T03:17:51.503Z,12.47
2019-01-20T03:20:29.105Z,13.57
2019-01-20T03:23:00.788Z,11.17
2019-01-20T03:25:34.083Z,12.77
2019-01-20T03:28:07.619Z,10.77
2019-01-20T03:30:40.281Z,11.30
2019-01-20T03:33:13.235Z,12.60
2019-01-20T03:35:44.613Z,8.37
2019-01-20T03:38:15.487Z,11.73
2019-01-20T03:40:46.616Z,8.93
2019-01-20T03:43:22.688Z,11.20
2019-01-20T03:45:57.062Z,12.73
2019-01-20T03:48:27.940Z,12.67
2019-01-20T03:50:59.921Z,11.33
2019-01-20T03:53:30.673Z,12.03
2019-01-20T03:56:04.035Z,12.40
2019-01-20T03:58:34.832Z,10.10
2019-01-20T04:01:09.988Z,11.90
2019-01-20T04:03:41.484Z,12.87
2019-01-20T04:06:16.039Z,11.83
2019-01-20T04:08:47.665Z,12.87
2019-01-20T04:11:19.949Z,11.40
2019-01-20T04:13:51.012Z,16.30
2019-01-20T04:16:23.682Z,14.87
2019-01-20T04:18:56.311Z,10.27
2019-01-20T04:21:27.467Z,15.13
2019-01-20T04:23:58.433Z,13.63
2019-01-20T04:26:29.343Z,12.77
2019-01-20T04:29:02.618Z,12.20
2019-01-20T04:31:36.384Z,15.90
2019-01-20T04:34:07.462Z,17.17
2019-01-20T04:36:38.605Z,12.83
2019-01-20T04:39:09.882Z,17.43
2019-01-20T04:41:41.749Z,15.47
2019-01-20T04:44:16.018Z,18.97
2019-01-20T04:46:46.910Z,11.90
2019-01-20T04:49:19.152Z,14.83
2019-01-20T04:51:50.201Z,17.67
2019-01-20T04:54:22.966Z,25.67
2019-01-20T04:56:53.941Z,26.93
2019-01-20T04:59:24.782Z,24.93
2019-01-20T05:01:56.133Z,21.27
2019-01-20T05:04:29.049Z,22.40
2019-01-20T05:06:59.899Z,26.70
2019-01-20T05:09:31.990Z,21.03
2019-01-20T05:12:03.373Z,19.47
2019-01-20T05:14:35.943Z,23.93
2019-01-20T05:17:06.760Z,20.03
2019-01-20T05:19:40.087Z,22.10
2019-01-20T05:22:11.030Z,19.77
2019-01-20T05:24:43.998Z,16.43
2019-01-20T05:27:17.547Z,20.10
2019-01-20T05:29:48.446Z,19.70
2019-01-20T05:32:19.223Z,19.57
2019-01-20T05:34:50.721Z,19.27
2019-01-20T05:37:21.661Z,22.43
2019-01-20T05:39:56.490Z,18.77
2019-01-20T05:42:29.475Z,15.23
2019-01-20T05:45:02.933Z,22.27
2019-01-20T05:47:36.792Z,17.93
2019-01-20T05:50:12.191Z,17.20
2019-01-20T05:52:44.198Z,19.47
2019-01-20T05:55:15.117Z,14.87
2019-01-20T05:57:48.658Z,15.63
2019-01-20T06:00:27.660Z,14.27
2019-01-20T06:02:58.524Z,15.17
2019-01-20T06:05:31.700Z,16.13
2019-01-20T06:08:05.205Z,12.90
2019-01-20T06:10:36.241Z,14.00
2019-01-20T06:13:07.181Z,15.53
2019-01-20T06:15:38.521Z,15.57
2019-01-20T06:18:10.829Z,16.47
2019-01-20T06:20:41.913Z,20.53
2019-01-20T06:23:13.128Z,18.50
2019-01-20T06:25:44.801Z,19.07
2019-01-20T06:28:16.002Z,19.97
2019-01-20T06:30:50.616Z,16.03
2019-01-20T06:33:21.720Z,12.97
2019-01-20T06:35:52.920Z,18.97
2019-01-20T06:38:27.103Z,15.30
2019-01-20T06:41:01.555Z,19.93
2019-01-20T06:43:38.355Z,17.00
2019-01-20T06:46:10.228Z,31.60
2019-01-20T06:48:41.074Z,20.87
2019-01-20T06:51:11.963Z,29.47
2019-01-20T06:53:44.317Z,37.67
2019-01-20T06:56:16.889Z,41.43
2019-01-20T06:58:52.543Z,33.10
2019-01-20T07:01:23.369Z,38.57
2019-01-20T07:03:54.199Z,34.63
2019-01-20T07:06:26.547Z,36.50
2019-01-20T07:08:57.466Z,40.77
2019-01-20T07:11:28.399Z,35.03
2019-01-20T07:14:02.280Z,25.30
2019-01-20T07:16:36.543Z,25.13
2019-01-20T07:19:07.334Z,27.27
2019-01-20T07:21:40.705Z,20.37
2019-01-20T07:24:14.333Z,21.43
2019-01-20T07:26:45.191Z,22.73
2019-01-20T07:29:16.321Z,23.07
2019-01-20T07:31:48.496Z,19.77
2019-01-20T07:34:20.352Z,21.47
2019-01-20T07:37:00.431Z,20.10
2019-01-20T07:39:31.565Z,20.73
2019-01-20T07:42:02.670Z,20.37
2019-01-20T07:44:38.774Z,22.33
2019-01-20T07:47:10.416Z,18.43
2019-01-20T07:49:43.172Z,21.30
2019-01-20T07:52:17.289Z,16.83
2019-01-20T07:54:55.720Z,23.87
2019-01-20T07:57:29.372Z,21.40
2019-01-20T08:00:05.225Z,22.93
2019-01-20T08:02:36.116Z,16.77
2019-01-20T08:05:10.226Z,21.27
2019-01-20T08:07:43.252Z,21.23
2019-01-20T08:10:16.621Z,20.37
2019-01-20T08:12:47.819Z,20.50
2019-01-20T08:15:24.460Z,18.83
2019-01-20T08:17:55.858Z,24.40
2019-01-20T08:20:29.327Z,28.83
2019-01-20T08:23:00.189Z,23.00
2019-01-20T08:25:35.751Z,26.73
2019-01-20T08:28:07.713Z,25.67
2019-01-20T08:30:39.477Z,31.40
2019-01-20T08:33:10.733Z,28.97
2019-01-20T08:35:42.591Z,43.20
2019-01-20T08:38:13.421Z,42.97
2019-01-20T08:40:52.608Z,42.17
2019-01-20T08:43:31.723Z,38.47
2019-01-20T08:46:42.538Z,39.40
2019-01-20T08:49:15.249Z,40.33
2019-01-20T08:51:46.564Z,49.97
2019-01-20T08:54:23.242Z,60.77
2019-01-20T08:56:55.475Z,62.20
2019-01-20T08:59:28.129Z,60.07
2019-01-20T09:02:01.576Z,60.73
2019-01-20T09:04:45.574Z,60.53
2019-01-20T09:07:16.887Z,69.60
2019-01-20T09:09:49.011Z,58.43
2019-01-20T09:12:34.568Z,60.90
2019-01-20T09:15:11.069Z,50.00
2019-01-20T09:17:41.886Z,50.90
2019-01-20T09:20:12.978Z,49.53
2019-01-20T09:22:46.085Z,59.43
2019-01-20T09:25:17.244Z,63.80
2019-01-20T09:27:48.259Z,52.60
2019-01-20T09:30:21.078Z,48.07
2019-01-20T09:32:53.487Z,49.47
2019-01-20T09:35:27.433Z,48.07
2019-01-20T09:37:58.796Z,45.77
2019-01-20T09:40:32.280Z,48.30
2019-01-20T09:43:04.588Z,49.97
2019-01-20T09:45:37.437Z,39.47
2019-01-20T09:48:08.416Z,45.27
2019-01-20T09:51:26.273Z,47.63
2019-01-20T09:54:04.765Z,46.30
2019-01-20T09:56:35.993Z,41.57
2019-01-20T09:59:09.614Z,38.17
2019-01-20T10:02:01.446Z,39.70
2019-01-20T10:04:35.284Z,41.30
2019-01-20T10:07:06.106Z,34.07
2019-01-20T10:09:37.481Z,33.50
2019-01-20T10:12:13.495Z,35.07
2019-01-20T10:14:44.687Z,48.27
2019-01-20T10:17:16.932Z,44.50
2019-01-20T10:19:47.762Z,47.43
2019-01-20T10:22:23.630Z,42.73
2019-01-20T10:25:03.358Z,42.00
2019-01-20T10:27:37.098Z,36.43
2019-01-20T10:30:28.625Z,37.33
2019-01-20T10:33:05.418Z,38.03
2019-01-20T10:36:14.699Z,40.80
2019-01-20T10:38:58.370Z,40.70
2019-01-20T10:41:30.986Z,35.77
2019-01-20T10:44:06.827Z,48.57
2019-01-20T10:46:42.168Z,42.03
2019-01-20T10:49:18.815Z,30.87
2019-01-20T10:51:54.463Z,32.40
2019-01-20T10:54:29.628Z,26.83
2019-01-20T10:57:01.357Z,31.47
2019-01-20T10:59:38.681Z,21.57
2019-01-20T11:02:17.346Z,16.80
2019-01-20T11:04:57.270Z,19.80
2019-01-20T11:07:25.611Z,19.33
2019-01-20T11:09:56.608Z,15.27
2019-01-20T11:12:27.810Z,15.43
2019-01-20T11:15:01.922Z,16.17
2019-01-20T11:17:36.890Z,17.73
2019-01-20T11:20:14.623Z,15.67
2019-01-20T11:22:45.417Z,15.73
2019-01-20T11:25:32.527Z,15.93
2019-01-20T11:28:06.247Z,21.03
2019-01-20T11:30:38.126Z,16.87
2019-01-20T11:33:16.551Z,19.33
2019-01-20T11:35:51.331Z,20.67
2019-01-20T11:38:22.179Z,21.23
2019-01-20T11:40:53.452Z,30.10
2019-01-20T11:43:26.987Z,36.63
2019-01-20T11:45:58.234Z,27.63
2019-01-20T11:48:33.223Z,25.10
2019-01-20T11:51:08.074Z,30.80
2019-01-20T11:53:40.455Z,31.27
2019-01-20T11:56:13.859Z,37.63
2019-01-20T11:58:46.709Z,22.40
2019-01-20T12:01:23.620Z,21.27
2019-01-20T12:04:01.026Z,26.10
2019-01-20T12:06:35.670Z,23.57
2019-01-20T12:09:23.892Z,25.00
2019-01-20T12:11:58.899Z,24.27
2019-01-20T12:14:29.739Z,26.97
2019-01-20T12:17:03.590Z,23.90
2019-01-20T12:19:34.445Z,23.53
2019-01-20T12:22:05.265Z,23.27
2019-01-20T12:24:38.247Z,24.17
2019-01-20T12:27:12.398Z,21.73
2019-01-20T12:29:52.153Z,28.10
2019-01-20T12:32:31.201Z,27.17
2019-01-20T12:35:05.987Z,28.97
2019-01-20T12:37:36.829Z,25.70
2019-01-20T12:40:11.446Z,20.73
2019-01-20T12:42:43.897Z,22.53
2019-01-20T12:45:15.306Z,19.43
2019-01-20T12:47:46.353Z,22.53
2019-01-20T12:50:19.637Z,20.03
2019-01-20T12:52:54.268Z,18.73
2019-01-20T12:55:25.972Z,15.87
2019-01-20T12:58:03.873Z,17.30
2019-01-20T13:00:45.090Z,21.33
2019-01-20T13:03:24.848Z,22.53
2019-01-20T13:06:03.321Z,16.70
2019-01-20T13:08:38.058Z,19.83
2019-01-20T13:11:09.276Z,17.90
2019-01-20T13:13:42.302Z,17.57
2019-01-20T13:16:13.092Z,15.60
2019-01-20T13:18:46.701Z,18.00
2019-01-20T13:21:27.145Z,24.33
2019-01-20T13:24:07.908Z,22.17
2019-01-20T13:26:40.305Z,16.93
2019-01-20T13:29:11.275Z,21.40
2019-01-20T13:31:54.826Z,19.37
2019-01-20T13:34:26.124Z,19.63
2019-01-20T13:37:07.479Z,19.43
2019-01-20T13:39:41.810Z,50.80
2019-01-20T13:42:13.321Z,59.27
2019-01-20T13:44:51.835Z,45.00
2019-01-20T13:47:23.020Z,66.07
2019-01-20T13:49:54.043Z,33.50
2019-01-20T13:52:27.428Z,28.27
2019-01-20T13:55:12.922Z,23.67
2019-01-20T13:57:45.444Z,22.10
2019-01-20T14:00:32.180Z,24.77
2019-01-20T14:03:03.048Z,21.40
2019-01-20T14:05:35.736Z,19.83
2019-01-20T14:08:09.962Z,23.23
2019-01-20T14:10:44.899Z,23.37
2019-01-20T14:13:16.287Z,22.40
2019-01-20T14:15:48.468Z,22.60
2019-01-20T14:18:19.446Z,26.67
2019-01-20T14:20:51.382Z,24.40
2019-01-20T14:23:24.316Z,22.07
2019-01-20T14:25:55.312Z,23.90
2019-01-20T14:28:26.470Z,23.27
2019-01-20T14:30:59.118Z,20.50
2019-01-20T14:33:31.690Z,19.27
2019-01-20T14:36:03.839Z,19.63
2019-01-20T14:38:38.063Z,23.43
2019-01-20T14:41:22.672Z,20.07
2019-01-20T14:43:56.030Z,24.70
2019-01-20T14:46:30.045Z,19.53
2019-01-20T14:49:17.891Z,22.43
2019-01-20T14:51:52.365Z,19.93
2019-01-20T14:54:28.994Z,23.43
2019-01-20T14:57:06.450Z,106.53
2019-01-20T14:59:37.221Z,45.67
2019-01-20T15:02:15.422Z,412.37
2019-01-20T15:04:46.617Z,376.07
2019-01-20T15:07:18.057Z,62.20
2019-01-20T15:09:49.161Z,26.43
2019-01-20T15:12:20.737Z,22.33
2019-01-20T15:14:51.542Z,24.53
2019-01-20T15:17:24.029Z,43.17
2019-01-20T15:19:57.955Z,46.50
2019-01-20T15:22:40.077Z,57.40
2019-01-20T15:25:14.972Z,41.80
2019-01-20T15:27:58.418Z,33.90
2019-01-20T15:30:31.425Z,34.30
2019-01-20T15:33:07.614Z,29.30
2019-01-20T15:35:41.753Z,23.77
2019-01-20T15:38:15.480Z,21.87
2019-01-20T15:40:46.866Z,20.13
2019-01-20T15:43:21.447Z,22.87
2019-01-20T15:45:52.456Z,23.73
2019-01-20T15:48:29.970Z,20.30
2019-01-20T15:51:05.956Z,29.27
2019-01-20T15:53:38.703Z,20.73
2019-01-20T15:56:13.191Z,20.90
2019-01-20T16:01:57.454Z,25.73
2019-01-20T16:04:28.291Z,28.93
2019-01-20T16:07:02.523Z,24.73
2019-01-20T16:09:38.537Z,26.17
2019-01-20T16:12:10.387Z,23.87
2019-01-20T16:14:41.677Z,24.77
2019-01-20T16:17:15.581Z,28.93
2019-01-20T16:19:56.590Z,33.20
2019-01-20T16:22:30.524Z,17.37
2019-01-20T16:25:13.282Z,14.90
2019-01-20T16:27:48.629Z,14.23
2019-01-20T16:30:22.726Z,12.53
2019-01-20T16:32:57.179Z,14.07
2019-01-20T16:35:28.371Z,11.50
2019-01-20T16:38:06.872Z,16.10
2019-01-20T16:40:44.650Z,16.03
2019-01-20T16:43:15.950Z,13.77
2019-01-20T16:45:48.519Z,14.47
2019-01-20T16:48:29.595Z,14.30
2019-01-20T16:51:08.561Z,15.57
2019-01-20T16:53:44.879Z,16.27
2019-01-20T16:56:15.996Z,15.93
2019-01-20T16:58:51.409Z,15.60
2019-01-20T17:01:24.514Z,16.10
2019-01-20T17:03:58.296Z,14.73
2019-01-20T17:06:31.537Z,14.00
2019-01-20T17:09:21.928Z,14.93
2019-01-20T17:11:54.938Z,16.87
2019-01-20T17:14:28.062Z,16.90
2019-01-20T17:16:59.437Z,13.90
2019-01-20T17:19:33.279Z,14.13
2019-01-20T17:22:06.315Z,16.83
2019-01-20T17:24:44.286Z,18.20
2019-01-20T17:27:15.208Z,19.00
2019-01-20T17:29:46.414Z,15.73
2019-01-20T17:32:17.385Z,17.00
2019-01-20T17:34:52.593Z,17.20
2019-01-20T17:37:27.493Z,17.23
2019-01-20T17:40:03.188Z,16.40
2019-01-20T17:42:41.510Z,18.87
2019-01-20T17:45:19.739Z,17.83
2019-01-20T17:47:50.890Z,18.23
2019-01-20T17:50:28.491Z,19.90
2019-01-20T17:52:59.394Z,21.80
2019-01-20T17:55:30.316Z,20.83
2019-01-20T17:58:18.842Z,22.33
2019-01-20T18:00:52.858Z,19.77
2019-01-20T18:03:24.044Z,20.13
2019-01-20T18:05:59.391Z,16.87
2019-01-20T18:08:30.232Z,18.07
2019-01-20T18:11:07.035Z,20.47
2019-01-20T18:13:43.368Z,19.10
2019-01-20T18:16:14.491Z,19.07
2019-01-20T18:18:53.240Z,15.30
2019-01-20T18:21:27.067Z,15.13
2019-01-20T18:23:59.843Z,15.67
2019-01-20T18:26:31.510Z,16.83
2019-01-20T18:29:10.527Z,15.00
2019-01-20T18:31:41.896Z,17.40
2019-01-20T18:34:13.372Z,14.83
2019-01-20T18:36:45.628Z,16.87
2019-01-20T18:39:23.876Z,19.27
2019-01-20T18:42:01.310Z,15.30
2019-01-20T18:44:35.604Z,15.83
2019-01-20T18:47:06.616Z,20.43
2019-01-20T18:49:40.616Z,18.63
2019-01-20T18:52:13.313Z,15.07
2019-01-20T18:54:44.851Z,13.27
2019-01-20T18:57:19.103Z,15.37
2019-01-20T18:59:51.408Z,15.27
2019-01-20T19:02:27.765Z,16.27
2019-01-20T19:05:00.230Z,15.00
2019-01-20T19:07:33.318Z,16.17
2019-01-20T19:10:06.401Z,16.20
2019-01-20T19:12:40.721Z,15.40
2019-01-20T19:15:15.004Z,14.90
2019-01-20T19:17:48.055Z,14.50
2019-01-20T19:20:26.844Z,16.67
2019-01-20T19:22:58.058Z,16.43
2019-01-20T19:25:28.883Z,17.37
2019-01-20T19:27:59.921Z,16.77
2019-01-20T19:30:32.913Z,18.53
2019-01-20T19:33:04.541Z,17.23
2019-01-20T19:35:35.500Z,20.33
2019-01-20T19:38:08.001Z,18.20
2019-01-20T19:40:41.297Z,18.73
2019-01-20T19:43:13.697Z,16.80
2019-01-20T19:45:48.859Z,17.13
2019-01-20T19:48:22.380Z,15.77
2019-01-20T19:50:53.488Z,18.00
2019-01-20T19:53:27.551Z,17.57
2019-01-20T19:56:01.894Z,23.03
2019-01-20T19:58:50.951Z,18.10
2019-01-20T20:01:22.294Z,18.70
2019-01-20T20:03:56.449Z,20.03
2019-01-20T20:06:30.819Z,19.73
2019-01-20T20:09:07.190Z,20.23
2019-01-20T20:11:52.079Z,18.50
2019-01-20T20:14:29.179Z,18.67
2019-01-20T20:17:00.263Z,15.87
2019-01-20T20:19:32.709Z,16.23
2019-01-20T20:22:06.281Z,17.40
2019-01-20T20:24:50.570Z,18.77
2019-01-20T20:27:24.543Z,17.23
2019-01-20T20:29:57.559Z,18.53
2019-01-20T20:32:29.386Z,21.17
2019-01-20T20:35:05.718Z,18.07
2019-01-20T20:38:01.729Z,18.60
2019-01-20T20:40:39.463Z,16.10
2019-01-20T20:43:13.115Z,19.10
2019-01-20T20:45:47.562Z,16.63
2019-01-20T20:48:28.833Z,16.70
2019-01-20T20:51:05.292Z,15.40
2019-01-20T20:53:36.964Z,18.27
2019-01-20T20:56:10.803Z,16.87
2019-01-20T20:58:44.973Z,16.73
2019-01-20T21:01:15.994Z,18.03
2019-01-20T21:03:47.425Z,13.83
2019-01-20T21:06:21.661Z,15.50
2019-01-20T21:08:53.712Z,17.97
2019-01-20T21:11:24.598Z,16.77
2019-01-20T21:13:55.719Z,17.73
2019-01-20T21:16:27.574Z,17.57
2019-01-20T21:19:08.833Z,15.67
2019-01-20T21:21:39.667Z,18.30
2019-01-20T21:24:16.474Z,15.80
2019-01-20T21:26:48.678Z,17.07
2019-01-20T21:29:19.716Z,16.90
2019-01-20T21:31:51.445Z,15.50
2019-01-20T21:34:22.465Z,16.50
2019-01-20T21:37:01.720Z,16.77
2019-01-20T21:39:32.549Z,13.80
2019-01-20T21:42:03.774Z,15.57
2019-01-20T21:44:37.916Z,14.63
2019-01-20T21:47:10.248Z,13.77
2019-01-20T21:49:42.963Z,13.90
2019-01-20T21:52:13.765Z,15.83
2019-01-20T21:54:48.566Z,17.33
2019-01-20T21:57:18.943Z,15.60
2019-01-20T21:59:49.858Z,15.13
2019-01-20T22:02:23.822Z,15.40
2019-01-20T22:04:54.574Z,13.00
2019-01-20T22:07:25.692Z,14.37
2019-01-20T22:09:59.398Z,14.40
2019-01-20T22:12:32.340Z,15.30
2019-01-20T22:15:04.101Z,14.90
2019-01-20T22:17:35.921Z,14.23
2019-01-20T22:20:07.817Z,13.67
2019-01-20T22:22:42.174Z,18.53
2019-01-20T22:25:13.686Z,15.43
2019-01-20T22:27:46.358Z,14.73
2019-01-20T22:30:22.936Z,14.27
2019-01-20T22:32:55.432Z,18.83
2019-01-20T22:35:35.505Z,13.67
2019-01-20T22:38:09.336Z,13.70
2019-01-20T22:40:40.189Z,15.77
2019-01-20T22:43:12.698Z,13.30
2019-01-20T22:45:45.348Z,13.33
2019-01-20T22:48:16.372Z,14.47
2019-01-20T22:50:54.624Z,13.23
2019-01-20T22:53:30.004Z,15.93
2019-01-20T22:56:01.047Z,17.53
2019-01-20T22:58:32.411Z,14.03
2019-01-20T23:01:16.376Z,13.47
2019-01-20T23:03:47.280Z,15.57
2019-01-20T23:06:19.503Z,14.60
2019-01-20T23:08:52.959Z,13.90
2019-01-20T23:11:23.759Z,13.90
2019-01-20T23:13:54.544Z,13.70
2019-01-20T23:16:28.477Z,16.00
2019-01-20T23:19:02.113Z,15.20
2019-01-20T23:21:35.125Z,13.83
2019-01-20T23:24:10.912Z,15.57
2019-01-20T23:26:42.622Z,13.30
2019-01-20T23:29:22.349Z,14.50
2019-01-20T23:32:01.102Z,17.67
2019-01-20T23:34:31.971Z,15.67
2019-01-20T23:37:04.193Z,17.00
2019-01-20T23:39:39.270Z,13.47
2019-01-20T23:42:13.873Z,15.57
2019-01-20T23:44:45.926Z,18.37
2019-01-20T23:47:17.298Z,15.60
2019-01-20T23:49:48.435Z,16.70
2019-01-20T23:52:19.604Z,16.50
2019-01-20T23:54:51.739Z,16.73
2019-01-20T23:57:22.728Z,15.00
2019-01-20T23:59:56.691Z,14.10
